sensor_id;sensor_type;location;lat;lon;timestamp;P1;durP1;ratioP1;P2;durP2;ratioP2
1693;SDS011;844;47.058;15.472;2022-07-21T00:00:46;2.93;;;2.57;;
1693;SDS011;844;47.058;15.472;2022-07-21T00:03:15;3.13;;;2.90;;
1693;SDS011;844;47.058;15.472;2022-07-21T00:05:44;3.17;;;2.90;;
1693;SDS011;844;47.058;15.472;2022-07-21T00:08:15;3.47;;;3.27;;
1693;SDS011;844;47.058;15.472;2022-07-21T00:10:44;3.23;;;3.03;;
1693;SDS011;844;47.058;15.472;2022-07-21T00:13:14;3.53;;;3.23;;
1693;SDS011;844;47.058;15.472;2022-07-21T00:15:43;3.70;;;3.40;;
1693;SDS011;844;47.058;15.472;2022-07-21T00:18:13;2.73;;;2.53;;
1693;SDS011;844;47.058;15.472;2022-07-21T00:20:43;3.27;;;2.97;;
1693;SDS011;844;47.058;15.472;2022-07-21T00:23:14;3.53;;;2.93;;
1693;SDS011;844;47.058;15.472;2022-07-21T00:25:44;4.07;;;3.77;;
1693;SDS011;844;47.058;15.472;2022-07-21T00:28:15;3.13;;;2.83;;
1693;SDS011;844;47.058;15.472;2022-07-21T00:30:44;3.70;;;2.77;;
1693;SDS011;844;47.058;15.472;2022-07-21T00:33:20;3.03;;;2.83;;
1693;SDS011;844;47.058;15.472;2022-07-21T00:35:49;2.93;;;2.70;;
1693;SDS011;844;47.058;15.472;2022-07-21T00:38:19;3.87;;;3.57;;
1693;SDS011;844;47.058;15.472;2022-07-21T00:40:56;4.00;;;3.30;;
1693;SDS011;844;47.058;15.472;2022-07-21T00:43:27;3.70;;;3.10;;
1693;SDS011;844;47.058;15.472;2022-07-21T00:45:58;3.57;;;3.27;;
1693;SDS011;844;47.058;15.472;2022-07-21T00:48:32;5.43;;;2.93;;
1693;SDS011;844;47.058;15.472;2022-07-21T00:51:07;3.57;;;3.20;;
1693;SDS011;844;47.058;15.472;2022-07-21T00:53:41;3.37;;;3.17;;
1693;SDS011;844;47.058;15.472;2022-07-21T00:56:14;3.20;;;2.90;;
1693;SDS011;844;47.058;15.472;2022-07-21T00:58:48;6.00;;;3.23;;
1693;SDS011;844;47.058;15.472;2022-07-21T01:01:17;3.53;;;3.23;;
1693;SDS011;844;47.058;15.472;2022-07-21T01:03:50;3.37;;;3.17;;
1693;SDS011;844;47.058;15.472;2022-07-21T01:06:19;3.80;;;2.90;;
1693;SDS011;844;47.058;15.472;2022-07-21T01:08:49;3.77;;;3.40;;
1693;SDS011;844;47.058;15.472;2022-07-21T01:11:20;3.53;;;3.33;;
1693;SDS011;844;47.058;15.472;2022-07-21T01:13:55;2.80;;;2.60;;
1693;SDS011;844;47.058;15.472;2022-07-21T01:16:27;3.90;;;2.97;;
1693;SDS011;844;47.058;15.472;2022-07-21T01:18:57;3.47;;;3.17;;
1693;SDS011;844;47.058;15.472;2022-07-21T01:21:33;3.87;;;3.57;;
1693;SDS011;844;47.058;15.472;2022-07-21T01:24:05;3.80;;;3.50;;
1693;SDS011;844;47.058;15.472;2022-07-21T01:26:40;2.77;;;2.57;;
1693;SDS011;844;47.058;15.472;2022-07-21T01:29:11;3.57;;;3.20;;
1693;SDS011;844;47.058;15.472;2022-07-21T01:31:42;3.50;;;3.20;;
1693;SDS011;844;47.058;15.472;2022-07-21T01:34:13;4.17;;;3.87;;
1693;SDS011;844;47.058;15.472;2022-07-21T01:36:44;3.00;;;2.80;;
1693;SDS011;844;47.058;15.472;2022-07-21T01:39:14;3.53;;;3.23;;
1693;SDS011;844;47.058;15.472;2022-07-21T01:42:02;2.90;;;2.70;;
1693;SDS011;844;47.058;15.472;2022-07-21T01:44:34;3.80;;;3.50;;
1693;SDS011;844;47.058;15.472;2022-07-21T01:47:03;3.60;;;3.20;;
1693;SDS011;844;47.058;15.472;2022-07-21T01:49:36;5.47;;;3.67;;
1693;SDS011;844;47.058;15.472;2022-07-21T01:52:07;3.10;;;2.90;;
1693;SDS011;844;47.058;15.472;2022-07-21T01:54:38;3.70;;;3.40;;
1693;SDS011;844;47.058;15.472;2022-07-21T01:57:07;3.03;;;2.83;;
1693;SDS011;844;47.058;15.472;2022-07-21T01:59:40;2.67;;;2.47;;
1693;SDS011;844;47.058;15.472;2022-07-21T02:02:10;3.30;;;3.10;;
1693;SDS011;844;47.058;15.472;2022-07-21T02:04:39;3.73;;;3.43;;
1693;SDS011;844;47.058;15.472;2022-07-21T02:07:10;3.07;;;2.87;;
1693;SDS011;844;47.058;15.472;2022-07-21T02:09:39;3.00;;;2.80;;
1693;SDS011;844;47.058;15.472;2022-07-21T02:12:09;3.67;;;3.47;;
1693;SDS011;844;47.058;15.472;2022-07-21T02:14:42;3.40;;;3.20;;
1693;SDS011;844;47.058;15.472;2022-07-21T02:17:13;3.47;;;3.27;;
1693;SDS011;844;47.058;15.472;2022-07-21T02:19:42;3.50;;;3.20;;
1693;SDS011;844;47.058;15.472;2022-07-21T02:22:16;2.80;;;2.60;;
1693;SDS011;844;47.058;15.472;2022-07-21T02:24:45;3.03;;;2.83;;
1693;SDS011;844;47.058;15.472;2022-07-21T02:27:16;3.57;;;3.27;;
1693;SDS011;844;47.058;15.472;2022-07-21T02:29:46;3.67;;;3.37;;
1693;SDS011;844;47.058;15.472;2022-07-21T02:32:17;2.97;;;2.77;;
1693;SDS011;844;47.058;15.472;2022-07-21T02:34:46;4.00;;;3.70;;
1693;SDS011;844;47.058;15.472;2022-07-21T02:37:20;3.40;;;3.17;;
1693;SDS011;844;47.058;15.472;2022-07-21T02:39:50;3.40;;;3.20;;
1693;SDS011;844;47.058;15.472;2022-07-21T02:42:20;4.67;;;3.73;;
1693;SDS011;844;47.058;15.472;2022-07-21T02:44:49;3.87;;;3.57;;
1693;SDS011;844;47.058;15.472;2022-07-21T02:47:18;3.50;;;3.20;;
1693;SDS011;844;47.058;15.472;2022-07-21T02:49:47;4.73;;;2.93;;
1693;SDS011;844;47.058;15.472;2022-07-21T02:52:17;3.20;;;3.00;;
1693;SDS011;844;47.058;15.472;2022-07-21T02:54:49;4.33;;;3.57;;
1693;SDS011;844;47.058;15.472;2022-07-21T02:57:19;2.90;;;2.70;;
1693;SDS011;844;47.058;15.472;2022-07-21T02:59:49;3.60;;;3.30;;
1693;SDS011;844;47.058;15.472;2022-07-21T03:02:19;3.63;;;3.33;;
1693;SDS011;844;47.058;15.472;2022-07-21T03:04:48;3.60;;;3.30;;
1693;SDS011;844;47.058;15.472;2022-07-21T03:07:17;3.73;;;3.40;;
1693;SDS011;844;47.058;15.472;2022-07-21T03:09:46;3.70;;;3.40;;
1693;SDS011;844;47.058;15.472;2022-07-21T03:12:17;9.80;;;4.50;;
1693;SDS011;844;47.058;15.472;2022-07-21T03:14:47;4.53;;;3.60;;
1693;SDS011;844;47.058;15.472;2022-07-21T03:17:16;4.23;;;3.90;;
1693;SDS011;844;47.058;15.472;2022-07-21T03:19:45;6.33;;;4.07;;
1693;SDS011;844;47.058;15.472;2022-07-21T03:22:14;3.60;;;3.40;;
1693;SDS011;844;47.058;15.472;2022-07-21T03:24:43;3.50;;;3.20;;
1693;SDS011;844;47.058;15.472;2022-07-21T03:27:13;3.37;;;3.03;;
1693;SDS011;844;47.058;15.472;2022-07-21T03:29:42;3.57;;;3.23;;
1693;SDS011;844;47.058;15.472;2022-07-21T03:32:12;3.00;;;2.80;;
1693;SDS011;844;47.058;15.472;2022-07-21T03:34:41;4.30;;;3.97;;
1693;SDS011;844;47.058;15.472;2022-07-21T03:37:14;3.57;;;3.33;;
1693;SDS011;844;47.058;15.472;2022-07-21T03:39:43;4.10;;;3.80;;
1693;SDS011;844;47.058;15.472;2022-07-21T03:42:13;3.63;;;3.33;;
1693;SDS011;844;47.058;15.472;2022-07-21T03:44:42;3.80;;;3.50;;
1693;SDS011;844;47.058;15.472;2022-07-21T03:47:12;4.30;;;3.97;;
1693;SDS011;844;47.058;15.472;2022-07-21T03:49:43;4.30;;;3.60;;
1693;SDS011;844;47.058;15.472;2022-07-21T03:52:12;5.40;;;3.80;;
1693;SDS011;844;47.058;15.472;2022-07-21T03:54:41;3.90;;;3.60;;
1693;SDS011;844;47.058;15.472;2022-07-21T03:57:10;4.33;;;3.80;;
1693;SDS011;844;47.058;15.472;2022-07-21T03:59:41;3.87;;;3.57;;
1693;SDS011;844;47.058;15.472;2022-07-21T04:02:10;4.20;;;3.80;;
1693;SDS011;844;47.058;15.472;2022-07-21T04:04:42;4.10;;;3.80;;
1693;SDS011;844;47.058;15.472;2022-07-21T04:07:11;4.23;;;3.93;;
1693;SDS011;844;47.058;15.472;2022-07-21T04:09:40;4.17;;;3.70;;
1693;SDS011;844;47.058;15.472;2022-07-21T04:12:10;4.47;;;4.07;;
1693;SDS011;844;47.058;15.472;2022-07-21T04:14:40;3.20;;;3.00;;
1693;SDS011;844;47.058;15.472;2022-07-21T04:17:11;4.27;;;3.50;;
1693;SDS011;844;47.058;15.472;2022-07-21T04:19:40;4.50;;;4.20;;
1693;SDS011;844;47.058;15.472;2022-07-21T04:22:09;4.10;;;3.80;;
1693;SDS011;844;47.058;15.472;2022-07-21T04:24:38;4.30;;;4.00;;
1693;SDS011;844;47.058;15.472;2022-07-21T04:27:08;3.80;;;3.60;;
1693;SDS011;844;47.058;15.472;2022-07-21T04:29:38;3.90;;;3.60;;
1693;SDS011;844;47.058;15.472;2022-07-21T04:32:09;3.67;;;3.37;;
1693;SDS011;844;47.058;15.472;2022-07-21T04:34:39;3.77;;;3.57;;
1693;SDS011;844;47.058;15.472;2022-07-21T04:37:08;4.03;;;3.60;;
1693;SDS011;844;47.058;15.472;2022-07-21T04:39:37;3.70;;;3.40;;
1693;SDS011;844;47.058;15.472;2022-07-21T04:42:06;5.30;;;4.80;;
1693;SDS011;844;47.058;15.472;2022-07-21T04:44:35;5.13;;;4.50;;
1693;SDS011;844;47.058;15.472;2022-07-21T04:47:06;4.43;;;4.03;;
1693;SDS011;844;47.058;15.472;2022-07-21T04:49:35;6.20;;;4.87;;
1693;SDS011;844;47.058;15.472;2022-07-21T04:52:04;6.73;;;3.90;;
1693;SDS011;844;47.058;15.472;2022-07-21T04:54:34;5.30;;;4.80;;
1693;SDS011;844;47.058;15.472;2022-07-21T04:57:04;4.27;;;3.90;;
1693;SDS011;844;47.058;15.472;2022-07-21T04:59:33;4.43;;;4.03;;
1693;SDS011;844;47.058;15.472;2022-07-21T05:02:03;6.60;;;4.00;;
1693;SDS011;844;47.058;15.472;2022-07-21T05:04:34;4.10;;;3.80;;
1693;SDS011;844;47.058;15.472;2022-07-21T05:07:04;4.17;;;3.87;;
1693;SDS011;844;47.058;15.472;2022-07-21T05:09:33;5.20;;;4.70;;
1693;SDS011;844;47.058;15.472;2022-07-21T05:12:04;6.67;;;4.10;;
1693;SDS011;844;47.058;15.472;2022-07-21T05:14:34;4.70;;;4.30;;
1693;SDS011;844;47.058;15.472;2022-07-21T05:17:03;5.10;;;4.80;;
1693;SDS011;844;47.058;15.472;2022-07-21T05:19:33;6.63;;;4.80;;
1693;SDS011;844;47.058;15.472;2022-07-21T05:22:02;5.50;;;5.10;;
1693;SDS011;844;47.058;15.472;2022-07-21T05:24:32;5.10;;;4.60;;
1693;SDS011;844;47.058;15.472;2022-07-21T05:27:01;5.13;;;4.73;;
1693;SDS011;844;47.058;15.472;2022-07-21T05:29:30;5.33;;;4.83;;
1693;SDS011;844;47.058;15.472;2022-07-21T05:31:59;5.27;;;4.77;;
1693;SDS011;844;47.058;15.472;2022-07-21T05:34:29;5.50;;;5.10;;
1693;SDS011;844;47.058;15.472;2022-07-21T05:36:59;4.57;;;4.00;;
1693;SDS011;844;47.058;15.472;2022-07-21T05:39:29;5.27;;;4.87;;
1693;SDS011;844;47.058;15.472;2022-07-21T05:41:58;5.13;;;4.70;;
1693;SDS011;844;47.058;15.472;2022-07-21T05:44:27;5.30;;;4.90;;
1693;SDS011;844;47.058;15.472;2022-07-21T05:46:57;5.70;;;5.20;;
1693;SDS011;844;47.058;15.472;2022-07-21T05:49:26;5.00;;;4.60;;
1693;SDS011;844;47.058;15.472;2022-07-21T05:51:55;6.43;;;5.83;;
1693;SDS011;844;47.058;15.472;2022-07-21T05:54:25;5.67;;;5.13;;
1693;SDS011;844;47.058;15.472;2022-07-21T05:56:54;5.83;;;5.37;;
1693;SDS011;844;47.058;15.472;2022-07-21T05:59:25;6.37;;;5.93;;
1693;SDS011;844;47.058;15.472;2022-07-21T06:01:54;6.43;;;5.80;;
1693;SDS011;844;47.058;15.472;2022-07-21T06:04:23;6.83;;;5.57;;
1693;SDS011;844;47.058;15.472;2022-07-21T06:06:52;6.57;;;6.03;;
1693;SDS011;844;47.058;15.472;2022-07-21T06:09:21;6.63;;;6.03;;
1693;SDS011;844;47.058;15.472;2022-07-21T06:11:53;6.00;;;5.40;;
1693;SDS011;844;47.058;15.472;2022-07-21T06:14:23;6.70;;;6.00;;
1693;SDS011;844;47.058;15.472;2022-07-21T06:16:52;6.20;;;5.70;;
1693;SDS011;844;47.058;15.472;2022-07-21T06:19:22;5.97;;;5.50;;
1693;SDS011;844;47.058;15.472;2022-07-21T06:21:58;6.40;;;4.80;;
1693;SDS011;844;47.058;15.472;2022-07-21T06:24:29;7.40;;;5.27;;
1693;SDS011;844;47.058;15.472;2022-07-21T06:27:00;7.50;;;5.63;;
1693;SDS011;844;47.058;15.472;2022-07-21T06:29:32;5.73;;;5.20;;
1693;SDS011;844;47.058;15.472;2022-07-21T06:32:01;5.77;;;5.27;;
1693;SDS011;844;47.058;15.472;2022-07-21T06:34:31;5.10;;;4.70;;
1693;SDS011;844;47.058;15.472;2022-07-21T06:37:00;6.03;;;5.37;;
1693;SDS011;844;47.058;15.472;2022-07-21T06:39:30;5.97;;;5.57;;
1693;SDS011;844;47.058;15.472;2022-07-21T06:42:00;5.50;;;5.00;;
1693;SDS011;844;47.058;15.472;2022-07-21T06:44:29;7.33;;;5.73;;
1693;SDS011;844;47.058;15.472;2022-07-21T06:46:58;5.87;;;5.47;;
1693;SDS011;844;47.058;15.472;2022-07-21T06:49:31;6.00;;;5.50;;
1693;SDS011;844;47.058;15.472;2022-07-21T06:52:01;5.77;;;5.37;;
1693;SDS011;844;47.058;15.472;2022-07-21T06:54:31;6.63;;;5.83;;
1693;SDS011;844;47.058;15.472;2022-07-21T06:57:01;6.10;;;5.60;;
1693;SDS011;844;47.058;15.472;2022-07-21T06:59:33;5.43;;;4.93;;
1693;SDS011;844;47.058;15.472;2022-07-21T07:02:02;5.43;;;4.93;;
1693;SDS011;844;47.058;15.472;2022-07-21T07:04:32;6.53;;;5.40;;
1693;SDS011;844;47.058;15.472;2022-07-21T07:07:01;5.47;;;4.90;;
1693;SDS011;844;47.058;15.472;2022-07-21T07:09:30;5.93;;;5.50;;
1693;SDS011;844;47.058;15.472;2022-07-21T07:12:00;6.97;;;6.37;;
1693;SDS011;844;47.058;15.472;2022-07-21T07:14:53;6.70;;;5.40;;
1693;SDS011;844;47.058;15.472;2022-07-21T07:17:22;5.20;;;4.90;;
1693;SDS011;844;47.058;15.472;2022-07-21T07:19:52;6.93;;;6.03;;
1693;SDS011;844;47.058;15.472;2022-07-21T07:22:21;9.40;;;5.07;;
1693;SDS011;844;47.058;15.472;2022-07-21T07:24:50;7.27;;;5.87;;
1693;SDS011;844;47.058;15.472;2022-07-21T07:27:21;5.50;;;5.07;;
1693;SDS011;844;47.058;15.472;2022-07-21T07:29:56;6.60;;;4.87;;
1693;SDS011;844;47.058;15.472;2022-07-21T07:32:25;5.53;;;5.13;;
1693;SDS011;844;47.058;15.472;2022-07-21T07:34:54;4.90;;;4.53;;
1693;SDS011;844;47.058;15.472;2022-07-21T07:37:25;5.73;;;5.23;;
1693;SDS011;844;47.058;15.472;2022-07-21T07:39:54;5.10;;;4.80;;
1693;SDS011;844;47.058;15.472;2022-07-21T07:42:25;5.03;;;4.63;;
1693;SDS011;844;47.058;15.472;2022-07-21T07:44:54;5.00;;;4.60;;
1693;SDS011;844;47.058;15.472;2022-07-21T07:47:24;6.67;;;4.70;;
1693;SDS011;844;47.058;15.472;2022-07-21T07:49:54;5.40;;;4.90;;
1693;SDS011;844;47.058;15.472;2022-07-21T07:52:23;6.50;;;4.60;;
1693;SDS011;844;47.058;15.472;2022-07-21T07:54:52;5.57;;;4.00;;
1693;SDS011;844;47.058;15.472;2022-07-21T07:57:22;9.00;;;5.50;;
1693;SDS011;844;47.058;15.472;2022-07-21T07:59:52;4.93;;;4.53;;
1693;SDS011;844;47.058;15.472;2022-07-21T08:02:21;6.33;;;5.63;;
1693;SDS011;844;47.058;15.472;2022-07-21T08:04:51;6.87;;;5.80;;
1693;SDS011;844;47.058;15.472;2022-07-21T08:07:21;6.70;;;5.37;;
1693;SDS011;844;47.058;15.472;2022-07-21T08:09:50;7.37;;;5.60;;
1693;SDS011;844;47.058;15.472;2022-07-21T08:12:40;5.93;;;5.43;;
1693;SDS011;844;47.058;15.472;2022-07-21T08:15:11;5.40;;;4.73;;
1693;SDS011;844;47.058;15.472;2022-07-21T08:17:42;5.60;;;5.10;;
1693;SDS011;844;47.058;15.472;2022-07-21T08:20:11;6.50;;;4.50;;
1693;SDS011;844;47.058;15.472;2022-07-21T08:22:41;5.97;;;5.27;;
1693;SDS011;844;47.058;15.472;2022-07-21T08:25:10;5.37;;;4.87;;
1693;SDS011;844;47.058;15.472;2022-07-21T08:27:39;5.30;;;4.80;;
1693;SDS011;844;47.058;15.472;2022-07-21T08:30:10;5.47;;;4.97;;
1693;SDS011;844;47.058;15.472;2022-07-21T08:32:41;6.07;;;5.57;;
1693;SDS011;844;47.058;15.472;2022-07-21T08:35:11;6.97;;;6.47;;
1693;SDS011;844;47.058;15.472;2022-07-21T08:37:41;6.07;;;5.30;;
1693;SDS011;844;47.058;15.472;2022-07-21T08:40:22;5.80;;;5.30;;
1693;SDS011;844;47.058;15.472;2022-07-21T08:42:53;6.57;;;5.67;;
1693;SDS011;844;47.058;15.472;2022-07-21T08:45:24;7.77;;;6.80;;
1693;SDS011;844;47.058;15.472;2022-07-21T08:47:55;6.07;;;5.57;;
1693;SDS011;844;47.058;15.472;2022-07-21T08:50:27;7.27;;;5.40;;
1693;SDS011;844;47.058;15.472;2022-07-21T08:52:59;10.20;;;5.47;;
1693;SDS011;844;47.058;15.472;2022-07-21T08:55:29;5.17;;;4.70;;
1693;SDS011;844;47.058;15.472;2022-07-21T08:57:59;11.40;;;5.30;;
1693;SDS011;844;47.058;15.472;2022-07-21T09:00:35;5.90;;;4.63;;
1693;SDS011;844;47.058;15.472;2022-07-21T09:03:14;7.73;;;5.80;;
1693;SDS011;844;47.058;15.472;2022-07-21T09:05:58;4.63;;;4.20;;
1693;SDS011;844;47.058;15.472;2022-07-21T09:08:38;5.50;;;5.10;;
1693;SDS011;844;47.058;15.472;2022-07-21T09:11:13;5.17;;;4.53;;
1693;SDS011;844;47.058;15.472;2022-07-21T09:13:46;5.93;;;4.90;;
1693;SDS011;844;47.058;15.472;2022-07-21T09:16:43;8.13;;;5.63;;
1693;SDS011;844;47.058;15.472;2022-07-21T09:19:16;5.20;;;4.80;;
1693;SDS011;844;47.058;15.472;2022-07-21T09:21:51;5.67;;;4.83;;
1693;SDS011;844;47.058;15.472;2022-07-21T09:24:24;5.10;;;4.60;;
1693;SDS011;844;47.058;15.472;2022-07-21T09:27:01;4.90;;;4.57;;
1693;SDS011;844;47.058;15.472;2022-07-21T09:29:36;4.87;;;4.57;;
1693;SDS011;844;47.058;15.472;2022-07-21T09:32:26;6.63;;;4.57;;
1693;SDS011;844;47.058;15.472;2022-07-21T09:34:58;4.33;;;3.73;;
1693;SDS011;844;47.058;15.472;2022-07-21T09:37:34;5.30;;;4.07;;
1693;SDS011;844;47.058;15.472;2022-07-21T09:40:06;4.70;;;4.23;;
1693;SDS011;844;47.058;15.472;2022-07-21T09:42:42;4.23;;;3.93;;
1693;SDS011;844;47.058;15.472;2022-07-21T09:45:20;5.70;;;5.00;;
1693;SDS011;844;47.058;15.472;2022-07-21T09:47:51;5.30;;;4.80;;
1693;SDS011;844;47.058;15.472;2022-07-21T09:50:20;4.83;;;4.43;;
1693;SDS011;844;47.058;15.472;2022-07-21T09:52:54;5.63;;;3.97;;
1693;SDS011;844;47.058;15.472;2022-07-21T09:55:25;4.13;;;3.77;;
1693;SDS011;844;47.058;15.472;2022-07-21T09:57:55;4.80;;;4.40;;
1693;SDS011;844;47.058;15.472;2022-07-21T10:00:26;5.47;;;4.83;;
1693;SDS011;844;47.058;15.472;2022-07-21T10:02:56;3.97;;;3.67;;
1693;SDS011;844;47.058;15.472;2022-07-21T10:05:28;5.43;;;4.90;;
1693;SDS011;844;47.058;15.472;2022-07-21T10:07:59;6.03;;;4.37;;
1693;SDS011;844;47.058;15.472;2022-07-21T10:10:34;4.90;;;4.50;;
1693;SDS011;844;47.058;15.472;2022-07-21T10:13:23;5.63;;;4.50;;
1693;SDS011;844;47.058;15.472;2022-07-21T10:15:53;5.20;;;4.80;;
1693;SDS011;844;47.058;15.472;2022-07-21T10:18:25;4.80;;;4.50;;
1693;SDS011;844;47.058;15.472;2022-07-21T10:21:02;4.87;;;4.47;;
1693;SDS011;844;47.058;15.472;2022-07-21T10:23:39;4.90;;;4.60;;
1693;SDS011;844;47.058;15.472;2022-07-21T10:26:10;5.10;;;4.50;;
1693;SDS011;844;47.058;15.472;2022-07-21T10:28:40;4.77;;;4.27;;
1693;SDS011;844;47.058;15.472;2022-07-21T10:31:13;5.33;;;4.80;;
1693;SDS011;844;47.058;15.472;2022-07-21T10:33:54;5.43;;;4.60;;
1693;SDS011;844;47.058;15.472;2022-07-21T10:36:42;5.27;;;4.77;;
1693;SDS011;844;47.058;15.472;2022-07-21T10:39:17;5.00;;;4.53;;
1693;SDS011;844;47.058;15.472;2022-07-21T10:41:54;4.63;;;4.27;;
1693;SDS011;844;47.058;15.472;2022-07-21T10:44:41;5.40;;;4.90;;
1693;SDS011;844;47.058;15.472;2022-07-21T10:47:15;4.70;;;4.40;;
1693;SDS011;844;47.058;15.472;2022-07-21T10:49:53;4.37;;;4.07;;
1693;SDS011;844;47.058;15.472;2022-07-21T10:55:45;5.30;;;4.90;;
1693;SDS011;844;47.058;15.472;2022-07-21T10:58:17;5.33;;;4.60;;
1693;SDS011;844;47.058;15.472;2022-07-21T11:00:53;4.80;;;4.50;;
1693;SDS011;844;47.058;15.472;2022-07-21T11:03:33;4.37;;;3.90;;
1693;SDS011;844;47.058;15.472;2022-07-21T11:06:14;5.13;;;4.73;;
1693;SDS011;844;47.058;15.472;2022-07-21T11:09:06;3.93;;;3.60;;
1693;SDS011;844;47.058;15.472;2022-07-21T11:11:55;4.10;;;3.80;;
1693;SDS011;844;47.058;15.472;2022-07-21T11:17:24;4.10;;;3.80;;
1693;SDS011;844;47.058;15.472;2022-07-21T11:19:57;4.90;;;4.33;;
1693;SDS011;844;47.058;15.472;2022-07-21T11:22:28;5.50;;;4.37;;
1693;SDS011;844;47.058;15.472;2022-07-21T11:24:59;4.20;;;3.90;;
1693;SDS011;844;47.058;15.472;2022-07-21T11:27:32;5.03;;;4.53;;
1693;SDS011;844;47.058;15.472;2022-07-21T11:30:04;4.30;;;4.00;;
1693;SDS011;844;47.058;15.472;2022-07-21T11:32:36;4.53;;;4.23;;
1693;SDS011;844;47.058;15.472;2022-07-21T11:35:05;4.10;;;3.70;;
1693;SDS011;844;47.058;15.472;2022-07-21T11:37:38;3.93;;;3.63;;
1693;SDS011;844;47.058;15.472;2022-07-21T11:40:09;6.03;;;3.97;;
1693;SDS011;844;47.058;15.472;2022-07-21T11:42:42;5.13;;;4.50;;
1693;SDS011;844;47.058;15.472;2022-07-21T11:45:13;4.50;;;4.10;;
1693;SDS011;844;47.058;15.472;2022-07-21T11:47:47;4.33;;;3.90;;
1693;SDS011;844;47.058;15.472;2022-07-21T11:50:18;4.10;;;3.70;;
1693;SDS011;844;47.058;15.472;2022-07-21T11:52:49;4.60;;;4.17;;
1693;SDS011;844;47.058;15.472;2022-07-21T11:55:18;3.70;;;3.50;;
1693;SDS011;844;47.058;15.472;2022-07-21T11:57:47;3.77;;;3.57;;
1693;SDS011;844;47.058;15.472;2022-07-21T12:00:17;4.00;;;3.70;;
1693;SDS011;844;47.058;15.472;2022-07-21T12:02:48;4.43;;;4.13;;
1693;SDS011;844;47.058;15.472;2022-07-21T12:05:18;4.43;;;4.03;;
1693;SDS011;844;47.058;15.472;2022-07-21T12:07:52;6.47;;;4.03;;
1693;SDS011;844;47.058;15.472;2022-07-21T12:10:24;4.83;;;4.33;;
1693;SDS011;844;47.058;15.472;2022-07-21T12:12:57;4.70;;;4.23;;
1693;SDS011;844;47.058;15.472;2022-07-21T12:15:28;3.90;;;3.60;;
1693;SDS011;844;47.058;15.472;2022-07-21T12:18:02;4.00;;;3.63;;
1693;SDS011;844;47.058;15.472;2022-07-21T12:20:34;3.57;;;3.37;;
1693;SDS011;844;47.058;15.472;2022-07-21T12:23:18;4.17;;;3.87;;
1693;SDS011;844;47.058;15.472;2022-07-21T12:25:52;4.13;;;3.80;;
1693;SDS011;844;47.058;15.472;2022-07-21T12:31:11;3.77;;;3.50;;
1693;SDS011;844;47.058;15.472;2022-07-21T12:33:44;4.13;;;3.80;;
1693;SDS011;844;47.058;15.472;2022-07-21T12:36:33;5.27;;;4.77;;
1693;SDS011;844;47.058;15.472;2022-07-21T12:39:14;5.00;;;4.60;;
1693;SDS011;844;47.058;15.472;2022-07-21T12:42:06;6.13;;;4.13;;
1693;SDS011;844;47.058;15.472;2022-07-21T12:44:40;3.83;;;3.53;;
1693;SDS011;844;47.058;15.472;2022-07-21T12:47:13;4.27;;;3.70;;
1693;SDS011;844;47.058;15.472;2022-07-21T12:49:54;3.90;;;3.70;;
1693;SDS011;844;47.058;15.472;2022-07-21T12:52:41;4.53;;;4.23;;
1693;SDS011;844;47.058;15.472;2022-07-21T12:55:12;3.47;;;3.27;;
1693;SDS011;844;47.058;15.472;2022-07-21T12:57:41;5.50;;;5.00;;
1693;SDS011;844;47.058;15.472;2022-07-21T13:00:11;9.57;;;4.30;;
1693;SDS011;844;47.058;15.472;2022-07-21T13:02:46;5.83;;;4.23;;
1693;SDS011;844;47.058;15.472;2022-07-21T13:05:17;4.30;;;4.00;;
1693;SDS011;844;47.058;15.472;2022-07-21T13:07:48;3.70;;;3.40;;
1693;SDS011;844;47.058;15.472;2022-07-21T13:10:19;4.13;;;3.83;;
1693;SDS011;844;47.058;15.472;2022-07-21T13:12:48;5.60;;;4.50;;
1693;SDS011;844;47.058;15.472;2022-07-21T13:15:17;4.13;;;3.83;;
1693;SDS011;844;47.058;15.472;2022-07-21T13:17:47;4.73;;;4.33;;
1693;SDS011;844;47.058;15.472;2022-07-21T13:20:16;4.20;;;3.90;;
1693;SDS011;844;47.058;15.472;2022-07-21T13:22:45;6.87;;;3.93;;
1693;SDS011;844;47.058;15.472;2022-07-21T13:25:14;5.13;;;4.30;;
1693;SDS011;844;47.058;15.472;2022-07-21T13:27:45;4.43;;;4.13;;
1693;SDS011;844;47.058;15.472;2022-07-21T13:30:14;4.57;;;4.27;;
1693;SDS011;844;47.058;15.472;2022-07-21T13:32:44;4.93;;;4.53;;
1693;SDS011;844;47.058;15.472;2022-07-21T13:35:13;4.53;;;4.17;;
1693;SDS011;844;47.058;15.472;2022-07-21T13:37:52;6.57;;;4.03;;
1693;SDS011;844;47.058;15.472;2022-07-21T13:40:22;4.50;;;3.93;;
1693;SDS011;844;47.058;15.472;2022-07-21T13:43:14;4.20;;;3.77;;
1693;SDS011;844;47.058;15.472;2022-07-21T13:46:03;4.33;;;4.03;;
1693;SDS011;844;47.058;15.472;2022-07-21T13:48:35;5.03;;;4.63;;
1693;SDS011;844;47.058;15.472;2022-07-21T13:51:10;4.83;;;4.33;;
1693;SDS011;844;47.058;15.472;2022-07-21T13:53:40;4.87;;;4.53;;
1693;SDS011;844;47.058;15.472;2022-07-21T13:56:11;4.87;;;4.47;;
1693;SDS011;844;47.058;15.472;2022-07-21T13:58:42;3.70;;;3.50;;
1693;SDS011;844;47.058;15.472;2022-07-21T14:01:12;4.80;;;4.50;;
1693;SDS011;844;47.058;15.472;2022-07-21T14:03:43;4.00;;;3.70;;
1693;SDS011;844;47.058;15.472;2022-07-21T14:06:13;4.53;;;4.20;;
1693;SDS011;844;47.058;15.472;2022-07-21T14:08:44;4.80;;;4.10;;
1693;SDS011;844;47.058;15.472;2022-07-21T14:11:14;6.13;;;3.97;;
1693;SDS011;844;47.058;15.472;2022-07-21T14:14:02;5.13;;;4.00;;
1693;SDS011;844;47.058;15.472;2022-07-21T14:16:32;4.30;;;4.00;;
1693;SDS011;844;47.058;15.472;2022-07-21T14:19:01;5.70;;;4.40;;
1693;SDS011;844;47.058;15.472;2022-07-21T14:21:30;4.73;;;4.43;;
1693;SDS011;844;47.058;15.472;2022-07-21T14:23:59;5.17;;;4.30;;
1693;SDS011;844;47.058;15.472;2022-07-21T14:26:46;4.67;;;4.33;;
1693;SDS011;844;47.058;15.472;2022-07-21T14:29:17;4.23;;;3.93;;
1693;SDS011;844;47.058;15.472;2022-07-21T14:31:46;4.07;;;3.70;;
1693;SDS011;844;47.058;15.472;2022-07-21T14:34:16;3.73;;;3.43;;
1693;SDS011;844;47.058;15.472;2022-07-21T14:36:46;5.13;;;4.10;;
1693;SDS011;844;47.058;15.472;2022-07-21T14:39:15;4.97;;;4.47;;
1693;SDS011;844;47.058;15.472;2022-07-21T14:41:45;4.10;;;3.80;;
1693;SDS011;844;47.058;15.472;2022-07-21T14:44:15;4.07;;;3.87;;
1693;SDS011;844;47.058;15.472;2022-07-21T14:46:45;4.33;;;4.03;;
1693;SDS011;844;47.058;15.472;2022-07-21T14:49:15;4.93;;;4.40;;
1693;SDS011;844;47.058;15.472;2022-07-21T14:51:44;3.60;;;3.40;;
1693;SDS011;844;47.058;15.472;2022-07-21T14:54:14;4.20;;;3.90;;
1693;SDS011;844;47.058;15.472;2022-07-21T14:56:44;4.90;;;4.10;;
1693;SDS011;844;47.058;15.472;2022-07-21T14:59:34;4.40;;;4.10;;
1693;SDS011;844;47.058;15.472;2022-07-21T15:02:03;3.80;;;3.50;;
1693;SDS011;844;47.058;15.472;2022-07-21T15:04:40;6.33;;;3.97;;
1693;SDS011;844;47.058;15.472;2022-07-21T15:07:09;3.80;;;3.50;;
1693;SDS011;844;47.058;15.472;2022-07-21T15:09:38;4.23;;;3.93;;
1693;SDS011;844;47.058;15.472;2022-07-21T15:12:08;4.37;;;4.07;;
1693;SDS011;844;47.058;15.472;2022-07-21T15:14:39;3.67;;;3.37;;
1693;SDS011;844;47.058;15.472;2022-07-21T15:17:08;4.10;;;3.90;;
1693;SDS011;844;47.058;15.472;2022-07-21T15:19:37;4.07;;;3.70;;
1693;SDS011;844;47.058;15.472;2022-07-21T15:22:07;4.70;;;3.80;;
1693;SDS011;844;47.058;15.472;2022-07-21T15:24:36;4.50;;;4.20;;
1693;SDS011;844;47.058;15.472;2022-07-21T15:27:05;3.47;;;3.27;;
1693;SDS011;844;47.058;15.472;2022-07-21T15:29:35;4.03;;;3.73;;
1693;SDS011;844;47.058;15.472;2022-07-21T15:32:06;4.10;;;3.80;;
1693;SDS011;844;47.058;15.472;2022-07-21T15:34:35;3.90;;;3.60;;
1693;SDS011;844;47.058;15.472;2022-07-21T15:37:04;4.00;;;3.70;;
1693;SDS011;844;47.058;15.472;2022-07-21T15:39:33;9.47;;;4.50;;
1693;SDS011;844;47.058;15.472;2022-07-21T15:42:06;4.27;;;3.93;;
1693;SDS011;844;47.058;15.472;2022-07-21T15:44:37;3.70;;;3.40;;
1693;SDS011;844;47.058;15.472;2022-07-21T15:47:08;3.67;;;3.47;;
1693;SDS011;844;47.058;15.472;2022-07-21T15:49:37;4.90;;;3.80;;
1693;SDS011;844;47.058;15.472;2022-07-21T15:52:06;3.43;;;3.23;;